Time;durP1;ratioP1;P1;durP2;ratioP2;P2;SDS_P1;SDS_P2;PMS_P1;PMS_P2;Temp;Humidity;BMP_temperature;BMP_pressure;BME280_temperature;BME280_humidity;BME280_pressure;Samples;Min_cycle;Max_cycle;Signal;HPM_P1;HPM_P2
2022/09/01 00:01:41;;;;;;;7.00;4.30;;;;;;;12.90;100.00;99286.84;105105;1270;74181;-72
2022/09/01 00:04:10;;;;;;;4.70;3.90;;;;;;;12.89;100.00;99281.77;105128;1271;61281;-72
2022/09/01 00:06:39;;;;;;;6.60;3.40;;;;;;;12.87;100.00;99282.63;104964;1270;61290;-71
2022/09/01 00:09:09;;;;;;;6.40;4.10;;;;;;;12.87;100.00;99281.57;105008;1270;75507;-70
2022/09/01 00:11:36;;;;;;;5.50;3.50;;;;;;;12.85;100.00;99279.05;105023;1270;68243;-72
2022/09/01 00:14:05;;;;;;;4.60;3.70;;;;;;;12.83;100.00;99277.61;105115;1270;72693;-71
2022/09/01 00:16:32;;;;;;;7.20;4.00;;;;;;;12.81;100.00;99273.65;105075;1270;61311;-72
2022/09/01 00:18:58;;;;;;;4.60;3.60;;;;;;;12.79;100.00;99273.63;105006;1270;61349;-72
2022/09/01 00:21:31;;;;;;;5.10;4.30;;;;;;;12.77;100.00;99273.73;105037;1270;61291;-71
2022/09/01 00:23:59;;;;;;;4.70;3.90;;;;;;;12.73;100.00;99272.91;105084;1270;70325;-72
2022/09/01 00:26:26;;;;;;;5.90;3.80;;;;;;;12.72;100.00;99274.95;105088;1270;73289;-72
2022/09/01 00:28:52;;;;;;;4.70;3.70;;;;;;;12.72;100.00;99278.20;104918;1273;61436;-73
2022/09/01 00:31:20;;;;;;;5.80;3.70;;;;;;;12.69;100.00;99280.21;105083;1270;61284;-70
2022/09/01 00:33:47;;;;;;;9.20;5.00;;;;;;;12.66;100.00;99275.92;105057;1270;75540;-73
2022/09/01 00:36:16;;;;;;;4.50;3.80;;;;;;;12.65;100.00;99274.80;104995;1271;69304;-72
2022/09/01 00:38:43;;;;;;;5.90;3.80;;;;;;;12.64;100.00;99271.48;104925;1273;74393;-73
2022/09/01 00:41:09;;;;;;;6.20;4.00;;;;;;;12.62;100.00;99269.66;105097;1270;61384;-71
2022/09/01 00:43:43;;;;;;;5.10;3.90;;;;;;;12.60;100.00;99268.36;105084;1270;62108;-73
2022/09/01 00:46:13;;;;;;;5.30;4.00;;;;;;;12.57;100.00;99267.83;105073;1270;75324;-73
2022/09/01 00:48:39;;;;;;;7.20;4.40;;;;;;;12.55;100.00;99264.80;104889;1273;68736;-72
2022/09/01 00:51:08;;;;;;;8.00;5.10;;;;;;;12.51;100.00;99264.16;105058;1270;73480;-72
2022/09/01 00:53:36;;;;;;;7.90;4.50;;;;;;;12.48;100.00;99264.19;105256;1270;61321;-71
2022/09/01 00:56:04;;;;;;;5.70;4.20;;;;;;;12.47;100.00;99261.61;104922;1271;61910;-72
2022/09/01 00:58:31;;;;;;;5.90;4.10;;;;;;;12.45;100.00;99262.27;105020;1270;76861;-71
2022/09/01 01:00:58;;;;;;;5.30;4.20;;;;;;;12.44;100.00;99261.98;105052;1270;70323;-70
2022/09/01 01:03:24;;;;;;;6.30;4.90;;;;;;;12.42;100.00;99257.52;104977;1270;74869;-71
2022/09/01 01:05:56;;;;;;;6.90;4.70;;;;;;;12.40;100.00;99261.93;105052;1270;61280;-70
2022/09/01 01:08:32;;;;;;;6.30;4.30;;;;;;;12.37;100.00;99264.41;104916;1270;61987;-69
2022/09/01 01:11:06;;;;;;;6.70;4.40;;;;;;;12.36;100.00;99260.10;105029;1270;75460;-71
2022/09/01 01:14:16;;;;;;;5.50;4.50;;;;;;;12.33;100.00;99259.91;105085;1270;69445;-69
2022/09/01 01:16:45;;;;;;;8.30;5.30;;;;;;;12.27;100.00;99259.75;104995;1270;73450;-75
2022/09/01 01:23:00;;;;;;;7.70;5.20;;;;;;;12.24;100.00;99256.98;105057;1271;61991;-73
2022/09/01 01:23:09;;;;;;;7.60;4.60;;;;;;;12.22;100.00;99256.55;105172;1270;61849;-69
2022/09/01 01:25:03;;;;;;;6.60;5.10;;;;;;;12.20;100.00;99253.88;105081;1270;76339;-71
2022/09/01 01:27:33;;;;;;;7.00;4.50;;;;;;;12.14;100.00;99253.55;105153;1270;69165;-71
2022/09/01 01:30:02;;;;;;;8.40;4.80;;;;;;;12.11;100.00;99254.83;104932;1270;73264;-71
2022/09/01 01:32:28;;;;;;;6.60;5.00;;;;;;;12.08;100.00;99253.63;105092;1270;61911;-72
2022/09/01 01:34:55;;;;;;;9.00;5.10;;;;;;;12.05;100.00;99255.42;105081;1270;61390;-72
2022/09/01 01:37:23;;;;;;;6.60;4.80;;;;;;;12.03;100.00;99254.32;105143;1270;76361;-72
2022/09/01 01:39:51;;;;;;;6.10;4.60;;;;;;;12.01;100.00;99256.73;104925;1271;70845;-70
2022/09/01 01:42:17;;;;;;;8.10;5.10;;;;;;;12.01;100.00;99256.45;105057;1270;74116;-71
2022/09/01 01:44:45;;;;;;;7.20;4.40;;;;;;;12.00;100.00;99256.87;105022;1270;61352;-71
2022/09/01 01:47:12;;;;;;;6.00;4.80;;;;;;;11.98;100.00;99254.14;105169;1270;61187;-70
2022/09/01 01:49:43;;;;;;;6.30;4.80;;;;;;;11.96;100.00;99256.92;104885;1272;76484;-70
2022/09/01 01:52:15;;;;;;;6.50;5.30;;;;;;;11.94;100.00;99257.44;105088;1270;70337;-69
2022/09/01 01:54:45;;;;;;;6.30;4.80;;;;;;;11.92;100.00;99254.41;105040;1270;71856;-72
2022/09/01 01:57:15;;;;;;;6.90;4.70;;;;;;;11.90;100.00;99253.61;105051;1270;61276;-70
2022/09/01 01:59:43;;;;;;;6.10;4.70;;;;;;;11.88;100.00;99249.31;105074;1270;61497;-71
2022/09/01 02:02:11;;;;;;;7.10;5.70;;;;;;;11.85;100.00;99250.75;105150;1270;76330;-71
2022/09/01 02:04:39;;;;;;;9.30;6.60;;;;;;;11.83;100.00;99256.57;105093;1270;70402;-72
2022/09/01 02:07:11;;;;;;;7.40;5.50;;;;;;;11.81;100.00;99259.33;104992;1270;73325;-70
2022/09/01 02:09:39;;;;;;;6.50;5.10;;;;;;;11.81;100.00;99254.58;105068;1270;61199;-70
2022/09/01 02:12:07;;;;;;;7.80;4.70;;;;;;;11.80;100.00;99262.44;105100;1270;62419;-70
2022/09/01 02:14:34;;;;;;;6.10;4.30;;;;;;;11.80;100.00;99260.11;105036;1270;76376;-70
2022/09/01 02:17:06;;;;;;;8.40;4.40;;;;;;;11.80;100.00;99260.30;105063;1270;69483;-71
2022/09/01 02:19:36;;;;;;;5.00;4.10;;;;;;;11.81;100.00;99260.23;105054;1270;74472;-71
2022/09/01 02:22:03;;;;;;;7.70;4.60;;;;;;;11.81;100.00;99262.73;105039;1270;61394;-71
2022/09/01 02:24:29;;;;;;;8.70;4.80;;;;;;;11.81;100.00;99261.80;105132;1270;61240;-71
2022/09/01 02:26:57;;;;;;;8.70;4.80;;;;;;;11.82;100.00;99258.89;104967;1270;61333;-71
2022/09/01 02:29:25;;;;;;;6.70;4.70;;;;;;;11.82;100.00;99259.80;105034;1270;70484;-71
2022/09/01 02:31:52;;;;;;;6.80;5.00;;;;;;;11.82;100.00;99260.71;104913;1270;74167;-71
2022/09/01 02:34:20;;;;;;;6.00;4.80;;;;;;;11.80;100.00;99257.25;105217;1270;61369;-71
2022/09/01 02:36:50;;;;;;;9.50;5.40;;;;;;;11.80;100.00;99257.11;105034;1270;62135;-71
2022/09/01 02:39:22;;;;;;;6.50;5.00;;;;;;;11.79;100.00;99260.02;105071;1270;75599;-70
2022/09/01 02:41:49;;;;;;;9.00;5.50;;;;;;;11.76;100.00;99256.81;105007;1270;69875;-70
2022/09/01 02:44:20;;;;;;;11.30;5.70;;;;;;;11.74;100.00;99260.20;105103;1270;74357;-71
2022/09/01 02:46:47;;;;;;;9.40;6.30;;;;;;;11.73;100.00;99257.44;104970;1270;61294;-72
2022/09/01 02:49:18;;;;;;;8.80;4.90;;;;;;;11.72;100.00;99254.99;104853;1271;61259;-72
2022/09/01 02:51:49;;;;;;;8.60;4.80;;;;;;;11.70;100.00;99260.48;105111;1270;76433;-70
2022/09/01 02:54:16;;;;;;;5.80;4.80;;;;;;;11.67;100.00;99262.59;105116;1270;68395;-70
2022/09/01 02:56:46;;;;;;;6.80;4.30;;;;;;;11.65;100.00;99258.10;105247;1270;73527;-70
2022/09/01 02:59:20;;;;;;;6.30;4.90;;;;;;;11.61;100.00;99260.65;105080;1270;61280;-70
2022/09/01 03:01:48;;;;;;;5.40;4.20;;;;;;;11.59;100.00;99257.48;105062;1270;61241;-71
2022/09/01 03:04:16;;;;;;;6.20;4.50;;;;;;;11.57;100.00;99257.04;105213;1270;75261;-70
2022/09/01 03:06:43;;;;;;;4.70;4.20;;;;;;;11.56;100.00;99256.05;105129;1270;70585;-70
2022/09/01 03:09:13;;;;;;;6.00;3.80;;;;;;;11.54;100.00;99257.39;105058;1270;73262;-71
2022/09/01 03:11:40;;;;;;;;;;;;;;;11.52;100.00;99252.60;105040;1270;61376;-72
2022/09/01 03:14:08;;;;;;;4.80;3.90;;;;;;;11.50;100.00;99249.34;105142;1269;61223;-71
2022/09/01 03:16:35;;;;;;;6.70;4.20;;;;;;;11.49;100.00;99246.39;104992;1270;74177;-71
2022/09/01 03:19:02;;;;;;;7.20;3.70;;;;;;;11.48;100.00;99254.64;105015;1270;69076;-71
2022/09/01 03:21:30;;;;;;;3.90;3.60;;;;;;;11.47;100.00;99250.93;105079;1270;74342;-70
2022/09/01 03:24:00;;;;;;;6.60;3.90;;;;;;;11.47;100.00;99253.09;105145;1270;61289;-72
2022/09/01 03:26:26;;;;;;;6.80;4.30;;;;;;;11.44;100.00;99250.79;104780;1271;61450;-73
2022/09/01 03:28:52;;;;;;;4.70;4.10;;;;;;;11.43;100.00;99246.23;105092;1270;61348;-71
2022/09/01 03:31:19;;;;;;;4.60;3.80;;;;;;;11.41;100.00;99244.96;105107;1270;61381;-71
2022/09/01 03:33:46;;;;;;;6.10;3.90;;;;;;;11.39;100.00;99244.73;105034;1270;61302;-72
2022/09/01 03:36:17;;;;;;;4.20;3.80;;;;;;;11.36;100.00;99245.27;105037;1270;61457;-71
2022/09/01 03:38:47;;;;;;;6.50;3.70;;;;;;;11.32;100.00;99245.17;105070;1270;61256;-71
2022/09/01 03:41:16;;;;;;;4.30;3.80;;;;;;;11.28;100.00;99246.92;105168;1270;75399;-72
2022/09/01 03:43:45;;;;;;;6.60;3.90;;;;;;;11.24;100.00;99249.64;105226;1270;70870;-72
2022/09/01 03:46:18;;;;;;;4.70;4.00;;;;;;;11.18;100.00;99249.45;105132;1270;74253;-72
2022/09/01 03:48:47;;;;;;;5.10;4.30;;;;;;;11.13;100.00;99247.52;105069;1270;61353;-71
2022/09/01 03:51:14;;;;;;;4.30;3.70;;;;;;;11.08;100.00;99247.69;105197;1270;61267;-71
2022/09/01 03:53:40;;;;;;;4.70;4.20;;;;;;;11.04;100.00;99247.41;105117;1270;61374;-71
2022/09/01 03:56:07;;;;;;;4.70;4.30;;;;;;;10.99;100.00;99252.47;104858;1270;61571;-71
2022/09/01 03:58:34;;;;;;;6.70;4.80;;;;;;;10.97;100.00;99249.98;105060;1270;73376;-70
2022/09/01 04:01:01;;;;;;;5.90;5.30;;;;;;;10.94;100.00;99253.16;105049;1270;61444;-70
2022/09/01 04:03:31;;;;;;;7.90;5.70;;;;;;;10.93;100.00;99256.08;105009;1270;61412;-71
2022/09/01 04:05:59;;;;;;;5.80;5.10;;;;;;;10.94;100.00;99256.52;105024;1270;75276;-71
2022/09/01 04:08:29;;;;;;;6.10;4.90;;;;;;;10.96;100.00;99261.06;105136;1270;70271;-71
2022/09/01 04:10:58;;;;;;;5.60;4.60;;;;;;;10.97;100.00;99260.27;104992;1270;73707;-71
2022/09/01 04:13:29;;;;;;;5.40;4.70;;;;;;;10.99;100.00;99257.45;104903;1270;61301;-71
2022/09/01 04:15:56;;;;;;;;;;;;;;;11.05;100.00;99264.94;105157;1270;61395;-71
2022/09/01 04:18:22;;;;;;;9.80;5.90;;;;;;;11.08;100.00;99267.20;105101;1270;75078;-70
2022/09/01 04:20:55;;;;;;;13.40;6.50;;;;;;;11.13;100.00;99266.02;105031;1270;61433;-70
2022/09/01 04:23:29;;;;;;;9.20;7.30;;;;;;;11.19;100.00;99267.38;105200;1270;74449;-71
2022/09/01 04:26:07;;;;;;;9.70;6.80;;;;;;;11.26;100.00;99269.63;105076;1270;61196;-71
2022/09/01 04:28:37;;;;;;;7.40;6.50;;;;;;;11.32;100.00;99272.05;105155;1270;61287;-71
2022/09/01 04:31:16;;;;;;;11.90;5.90;;;;;;;11.41;100.00;99272.73;105079;1270;75083;-71
2022/09/01 04:33:45;;;;;;;6.50;5.30;;;;;;;11.50;100.00;99275.84;105016;1270;70173;-71
2022/09/01 04:36:24;;;;;;;9.60;6.20;;;;;;;11.59;100.00;99277.17;105140;1270;72813;-71
2022/09/01 04:38:56;;;;;;;7.00;4.80;;;;;;;11.70;100.00;99279.69;105026;1270;61281;-70
2022/09/01 04:41:26;;;;;;;5.90;5.00;;;;;;;11.78;100.00;99272.23;105082;1270;61338;-71
2022/09/01 04:44:02;;;;;;;7.80;5.30;;;;;;;11.88;100.00;99280.27;105059;1270;75558;-71
2022/09/01 04:46:30;;;;;;;7.10;5.70;;;;;;;11.99;100.00;99276.30;105031;1270;70264;-70
2022/09/01 04:48:57;;;;;;;8.30;5.80;;;;;;;12.10;100.00;99272.89;105006;1270;72716;-71
2022/09/01 04:51:26;;;;;;;7.00;5.10;;;;;;;12.23;100.00;99272.92;104967;1271;61334;-71
2022/09/01 04:53:56;;;;;;;8.70;5.40;;;;;;;12.34;100.00;99274.27;105036;1270;61257;-71
2022/09/01 04:56:24;;;;;;;7.30;5.00;;;;;;;12.47;100.00;99274.04;105080;1270;76312;-71
2022/09/01 04:58:54;;;;;;;6.60;5.10;;;;;;;12.64;100.00;99275.71;105115;1270;70528;-71
2022/09/01 05:01:24;;;;;;;6.20;4.20;;;;;;;12.90;100.00;99276.52;104953;1270;73724;-71
2022/09/01 05:03:58;;;;;;;5.40;4.30;;;;;;;13.28;100.00;99272.92;104896;1271;61585;-71
2022/09/01 05:06:24;;;;;;;4.60;3.80;;;;;;;13.75;100.00;99271.59;105027;1270;62331;-70
2022/09/01 05:08:51;;;;;;;5.00;4.10;;;;;;;14.33;100.00;99272.67;105021;1270;61322;-72
2022/09/01 05:11:18;;;;;;;6.10;4.50;;;;;;;14.85;100.00;99267.11;105007;1270;70849;-72
2022/09/01 05:13:47;;;;;;;5.10;4.00;;;;;;;15.22;100.00;99266.67;105068;1270;74217;-71
2022/09/01 05:16:18;;;;;;;8.10;4.00;;;;;;;15.53;100.00;99264.80;105045;1270;61269;-71
2022/09/01 05:18:48;;;;;;;4.50;3.30;;;;;;;15.77;100.00;99269.11;105053;1270;62512;-71
2022/09/01 05:21:21;;;;;;;6.20;3.70;;;;;;;15.93;100.00;99266.69;105053;1270;75196;-71
2022/09/01 05:23:49;;;;;;;3.60;2.70;;;;;;;16.02;100.00;99267.87;104799;1273;70198;-73
2022/09/01 05:26:19;;;;;;;5.10;2.80;;;;;;;16.16;100.00;99268.48;105050;1270;73814;-71
2022/09/01 05:28:48;;;;;;;3.70;2.80;;;;;;;16.45;100.00;99268.47;105004;1270;61623;-70
2022/09/01 05:31:18;;;;;;;3.40;2.70;;;;;;;16.76;100.00;99265.99;105049;1270;61184;-69
2022/09/01 05:33:47;;;;;;;2.90;1.90;;;;;;;17.00;100.00;99262.61;105048;1270;75487;-72
2022/09/01 05:36:16;;;;;;;3.00;2.10;;;;;;;17.17;100.00;99267.33;105029;1271;69414;-73
2022/09/01 05:38:44;;;;;;;5.50;2.50;;;;;;;17.32;100.00;99262.09;105010;1270;73568;-72
2022/09/01 05:41:13;;;;;;;4.20;2.30;;;;;;;17.56;100.00;99265.43;104911;1270;61574;-71
2022/09/01 05:43:45;;;;;;;10.20;3.80;;;;;;;17.86;100.00;99263.77;105088;1270;61959;-71
2022/09/01 05:46:17;;;;;;;4.50;2.30;;;;;;;18.14;100.00;99263.14;105041;1270;77280;-72
2022/09/01 05:48:45;;;;;;;4.00;2.40;;;;;;;18.48;100.00;99265.86;105022;1270;70583;-73
2022/09/01 05:51:16;;;;;;;25.00;6.40;;;;;;;18.66;100.00;99265.60;105123;1270;73646;-70
2022/09/01 05:53:43;;;;;;;5.30;2.20;;;;;;;18.99;100.00;99261.89;105049;1270;61206;-70
2022/09/01 05:56:12;;;;;;;4.00;2.20;;;;;;;19.25;100.00;99259.47;104950;1271;61288;-71
2022/09/01 05:58:39;;;;;;;2.90;2.00;;;;;;;19.43;100.00;99261.88;105082;1270;76561;-73
2022/09/01 06:01:06;;;;;;;4.90;2.00;;;;;;;19.51;100.00;99259.04;104850;1270;67640;-71
2022/09/01 06:03:32;;;;;;;6.20;2.20;;;;;;;19.42;100.00;99266.97;105093;1270;73359;-71
2022/09/01 06:06:04;;;;;;;7.80;2.20;;;;;;;19.40;100.00;99266.98;105148;1270;61295;-70
2022/09/01 06:08:30;;;;;;;4.30;2.20;;;;;;;19.18;100.00;99268.45;105160;1270;61825;-71
2022/09/01 06:10:56;;;;;;;4.30;2.00;;;;;;;18.85;100.00;99270.48;105087;1270;61288;-71
2022/09/01 06:13:23;;;;;;;3.80;2.10;;;;;;;18.85;100.00;99271.53;105001;1270;62931;-71
2022/09/01 06:15:52;;;;;;;4.10;2.40;;;;;;;19.03;100.00;99272.61;105049;1270;61277;-70
2022/09/01 06:18:20;;;;;;;2.50;1.90;;;;;;;19.27;100.00;99266.31;105009;1270;61388;-72
2022/09/01 06:20:47;;;;;;;3.70;2.00;;;;;;;19.57;100.00;99260.66;103865;1270;1606917;-71
2022/09/01 06:23:16;;;;;;;4.30;2.30;;;;;;;19.74;100.00;99258.20;105085;1270;76488;-71
2022/09/01 06:25:46;;;;;;;5.00;2.20;;;;;;;19.88;100.00;99262.11;105079;1270;70828;-71
2022/09/01 06:28:14;;;;;;;6.60;2.70;;;;;;;19.95;100.00;99262.78;105041;1270;71307;-72
2022/09/01 06:30:44;;;;;;;6.90;2.40;;;;;;;19.87;100.00;99266.27;104965;1270;61326;-73
2022/09/01 06:33:12;;;;;;;5.50;1.90;;;;;;;19.77;100.00;99270.98;104879;1271;61268;-72
2022/09/01 06:35:40;;;;;;;3.40;1.60;;;;;;;19.79;100.00;99272.55;105026;1270;75444;-70
2022/09/01 06:38:09;;;;;;;3.30;2.20;;;;;;;19.81;100.00;99272.16;105122;1270;70473;-71
2022/09/01 06:40:38;;;;;;;10.00;2.30;;;;;;;19.64;100.00;99278.67;105023;1270;73458;-71
2022/09/01 06:43:07;;;;;;;2.70;1.30;;;;;;;19.43;100.00;99287.27;105065;1270;61367;-71
2022/09/01 06:45:40;;;;;;;2.60;1.20;;;;;;;19.20;100.00;99293.30;105016;1270;61918;-69
2022/09/01 06:48:07;;;;;;;2.40;1.30;;;;;;;18.97;100.00;99294.54;105114;1270;76351;-72
2022/09/01 06:50:33;;;;;;;3.80;1.10;;;;;;;18.80;100.00;99293.77;104900;1271;61359;-72
2022/09/01 06:53:17;;;;;;;3.60;1.30;;;;;;;18.66;100.00;99292.77;104993;1270;61180;-71
2022/09/01 06:55:47;;;;;;;3.50;0.90;;;;;;;18.59;100.00;99291.83;104947;1270;61372;-72
2022/09/01 06:58:14;;;;;;;3.70;1.30;;;;;;;18.63;100.00;99291.79;105031;1270;61308;-72
2022/09/01 07:00:42;;;;;;;2.20;0.90;;;;;;;18.70;100.00;99296.67;104952;1270;76552;-72
2022/09/01 07:03:10;;;;;;;1.40;1.10;;;;;;;18.70;100.00;99298.33;105123;1270;70357;-70
2022/09/01 07:05:41;;;;;;;3.50;1.50;;;;;;;18.71;100.00;99299.15;105074;1270;74426;-73
2022/09/01 07:08:12;;;;;;;2.60;1.40;;;;;;;18.78;100.00;99295.05;104882;1270;61348;-69
2022/09/01 07:10:46;;;;;;;1.60;1.50;;;;;;;18.87;100.00;99297.59;105144;1270;61934;-70
2022/09/01 07:13:21;;;;;;;4.10;1.20;;;;;;;18.89;100.00;99298.52;105021;1270;75597;-68
2022/09/01 07:15:53;;;;;;;4.30;2.00;;;;;;;18.81;100.00;99299.95;105060;1270;69403;-72
2022/09/01 07:18:26;;;;;;;3.40;1.10;;;;;;;18.71;100.00;99302.92;105082;1270;73238;-72
2022/09/01 07:20:53;;;;;;;1.60;1.40;;;;;;;18.69;100.00;99299.13;105026;1270;61407;-70
2022/09/01 07:23:20;;;;;;;2.70;1.60;;;;;;;18.71;100.00;99301.42;105023;1270;61258;-69
2022/09/01 07:25:50;;;;;;;2.80;1.50;;;;;;;18.76;100.00;99303.87;105027;1270;61278;-72
2022/09/01 07:28:17;;;;;;;2.30;1.30;;;;;;;18.74;100.00;99301.67;105138;1270;69783;-72
2022/09/01 07:30:47;;;;;;;1.90;1.30;;;;;;;18.76;100.00;99300.26;105123;1270;74580;-72
2022/09/01 07:33:14;;;;;;;1.60;1.50;;;;;;;18.80;100.00;99300.48;105123;1270;61282;-70
2022/09/01 07:35:41;;;;;;;2.70;1.80;;;;;;;18.79;100.00;99300.03;105212;1270;62022;-72
2022/09/01 07:38:09;;;;;;;3.30;1.60;;;;;;;18.72;100.00;99297.21;104921;1270;75343;-72
2022/09/01 07:40:37;;;;;;;4.60;1.70;;;;;;;18.74;100.00;99298.53;104999;1270;70212;-72
2022/09/01 07:43:14;;;;;;;2.20;1.60;;;;;;;18.67;100.00;99302.54;105036;1270;73365;-72
2022/09/01 07:45:46;;;;;;;5.30;1.60;;;;;;;18.61;100.00;99306.20;105104;1270;61287;-75
2022/09/01 07:48:13;;;;;;;3.70;1.60;;;;;;;18.61;100.00;99301.13;105142;1270;61260;-72
2022/09/01 07:50:46;;;;;;;3.50;1.60;;;;;;;18.63;100.00;99300.76;105134;1270;75887;-72
2022/09/01 07:53:17;;;;;;;4.00;1.40;;;;;;;18.70;100.00;99302.29;105122;1270;69296;-71
2022/09/01 07:55:45;;;;;;;4.60;1.50;;;;;;;18.77;100.00;99301.60;105132;1270;74384;-71
2022/09/01 07:58:13;;;;;;;5.00;1.90;;;;;;;18.89;100.00;99298.36;104906;1270;61266;-71
2022/09/01 08:00:43;;;;;;;3.60;1.70;;;;;;;18.98;100.00;99302.73;104932;1270;61269;-70
2022/09/01 08:03:09;;;;;;;;;;;;;;;19.04;100.00;99297.70;104951;1270;76511;-72
2022/09/01 08:05:35;;;;;;;4.10;1.50;;;;;;;19.01;100.00;99298.27;104881;1270;61349;-73
2022/09/01 08:08:01;;;;;;;2.80;1.30;;;;;;;18.93;100.00;99293.48;105035;1270;61378;-70
2022/09/01 08:10:28;;;;;;;5.60;2.10;;;;;;;18.87;100.00;99297.20;105042;1270;61286;-71
2022/09/01 08:12:54;;;;;;;2.10;1.50;;;;;;;18.90;100.00;99294.83;105076;1270;61386;-71
2022/09/01 08:15:20;;;;;;;3.50;1.20;;;;;;;18.84;100.00;99291.10;105008;1270;61375;-70
2022/09/01 08:17:46;;;;;;;3.60;2.00;;;;;;;18.81;100.00;99294.39;104993;1270;61573;-71
2022/09/01 08:20:13;;;;;;;2.40;1.50;;;;;;;18.89;100.00;99294.89;105027;1270;61289;-72
2022/09/01 08:22:40;;;;;;;3.00;1.50;;;;;;;18.98;100.00;99294.76;105028;1270;61752;-71
2022/09/01 08:25:09;;;;;;;3.20;2.00;;;;;;;19.19;100.00;99296.67;105035;1270;61175;-71
2022/09/01 08:27:37;;;;;;;2.80;1.30;;;;;;;19.42;100.00;99296.00;105082;1270;76655;-71
2022/09/01 08:30:12;;;;;;;2.20;1.30;;;;;;;19.72;100.00;99289.41;105089;1270;69316;-72
2022/09/01 08:32:40;;;;;;;4.10;1.00;;;;;;;19.82;100.00;99290.63;105108;1270;73247;-72
2022/09/01 08:35:09;;;;;;;1.60;0.90;;;;;;;19.85;100.00;99292.88;105020;1270;61335;-72
2022/09/01 08:37:38;;;;;;;1.10;0.60;;;;;;;19.91;100.00;99296.70;105044;1270;61602;-73
2022/09/01 08:40:10;;;;;;;1.40;0.80;;;;;;;19.94;100.00;99291.36;105065;1270;76332;-72
2022/09/01 08:42:55;;;;;;;2.10;0.80;;;;;;;20.07;100.00;99288.30;104899;1270;69537;-71
2022/09/01 08:45:30;;;;;;;1.00;0.60;;;;;;;20.06;100.00;99288.20;105011;1270;72632;-73
2022/09/01 08:48:01;;;;;;;3.80;0.60;;;;;;;20.29;100.00;99288.36;105078;1270;61275;-72
2022/09/01 08:50:28;;;;;;;2.80;0.70;;;;;;;20.47;100.00;99285.95;105092;1270;61307;-72
2022/09/01 08:53:02;;;;;;;4.60;1.10;;;;;;;20.50;100.00;99290.71;105080;1270;75308;-72
2022/09/01 08:55:37;;;;;;;2.90;0.70;;;;;;;20.69;100.00;99284.09;105081;1270;69392;-72
2022/09/01 08:58:05;;;;;;;1.00;0.70;;;;;;;20.93;100.00;99286.45;105278;1270;74467;-71
2022/09/01 09:00:45;;;;;;;1.20;0.70;;;;;;;21.05;100.00;99287.02;105077;1270;60450;-71
2022/09/01 09:03:26;;;;;;;0.70;0.70;;;;;;;21.32;100.00;99280.64;105048;1270;62072;-71
2022/09/01 09:06:19;;;;;;;3.40;0.50;;;;;;;21.60;100.00;99285.23;105073;1270;76387;-71
2022/09/01 09:08:59;;;;;;;1.80;0.60;;;;;;;21.82;100.00;99276.75;105079;1269;68586;-71
2022/09/01 09:11:44;;;;;;;0.90;0.60;;;;;;;21.92;100.00;99277.81;105190;1270;73523;-71
2022/09/01 09:14:40;;;;;;;1.50;0.90;;;;;;;21.71;100.00;99283.15;105016;1270;61267;-71
2022/09/01 09:17:06;;;;;;;1.00;0.60;;;;;;;21.22;100.00;99283.39;104900;1273;61336;-71
2022/09/01 09:19:36;;;;;;;0.50;0.40;;;;;;;20.79;100.00;99286.14;105032;1270;61157;-71
2022/09/01 09:22:15;;;;;;;1.60;0.60;;;;;;;20.48;100.00;99284.41;105172;1270;70242;-71
2022/09/01 09:24:54;;;;;;;2.20;0.70;;;;;;;20.34;100.00;99281.55;105061;1270;73566;-71
2022/09/01 09:27:26;;;;;;;0.60;0.50;;;;;;;20.15;100.00;99284.58;105044;1270;61293;-71
2022/09/01 09:29:56;;;;;;;1.50;0.50;;;;;;;19.92;100.00;99286.35;105105;1270;61154;-71
2022/09/01 09:32:43;;;;;;;1.50;0.40;;;;;;;19.77;100.00;99284.27;105026;1270;75393;-71
2022/09/01 09:35:21;;;;;;;0.60;0.60;;;;;;;19.71;100.00;99284.70;105043;1270;70355;-70
2022/09/01 09:37:48;;;;;;;1.30;0.50;;;;;;;19.75;100.00;99281.77;105045;1270;74760;-72
2022/09/01 09:40:22;;;;;;;0.70;0.50;;;;;;;19.88;100.00;99281.05;105095;1270;61303;-71
2022/09/01 09:42:54;;;;;;;2.10;0.70;;;;;;;20.10;100.00;99277.34;105053;1270;62282;-71
2022/09/01 09:45:27;;;;;;;2.20;0.50;;;;;;;20.53;100.00;99274.32;105044;1270;76689;-73
2022/09/01 09:47:56;;;;;;;0.70;0.50;;;;;;;20.90;100.00;99272.11;104938;1270;70488;-73
2022/09/01 09:50:26;;;;;;;0.90;0.60;;;;;;;21.15;100.00;99270.35;105064;1270;73323;-71
2022/09/01 09:53:10;;;;;;;1.40;0.50;;;;;;;21.38;100.00;99273.56;105036;1268;61579;-72
2022/09/01 09:55:48;;;;;;;0.50;0.50;;;;;;;21.33;100.00;99277.10;105095;1270;61266;-70
2022/09/01 09:58:15;;;;;;;0.60;0.40;;;;;;;21.02;100.00;99275.14;105042;1270;76507;-71
2022/09/01 10:01:03;;;;;;;1.30;0.50;;;;;;;20.74;100.00;99275.98;105019;1270;71032;-71
2022/09/01 10:03:41;;;;;;;1.00;0.60;;;;;;;20.69;99.77;99277.75;104821;1270;74632;-72
2022/09/01 10:06:13;;;;;;;1.30;0.60;;;;;;;20.64;95.13;99278.61;105110;1270;61023;-72
2022/09/01 10:08:44;;;;;;;3.20;0.70;;;;;;;20.40;95.55;99278.80;104867;1271;61307;-71
2022/09/01 10:11:40;;;;;;;1.50;0.80;;;;;;;20.22;94.84;99278.32;104853;1270;75219;-71
2022/09/01 10:14:51;;;;;;;1.50;0.50;;;;;;;19.93;95.66;99279.98;105055;1270;70380;-72
2022/09/01 10:17:24;;;;;;;0.80;0.40;;;;;;;19.82;95.58;99281.81;104472;1277;73475;-70
2022/09/01 10:20:04;;;;;;;0.70;0.50;;;;;;;20.03;93.78;99282.02;104439;1278;61270;-71
2022/09/01 10:22:35;;;;;;;0.50;0.50;;;;;;;20.37;93.25;99272.54;104403;1279;61405;-72
2022/09/01 10:28:01;;;;;;;2.60;0.70;;;;;;;20.91;91.20;99264.02;104537;1278;69707;-71
2022/09/01 10:30:29;;;;;;;1.10;0.60;;;;;;;21.14;86.96;99268.70;104428;1278;72641;-70
2022/09/01 10:32:59;;;;;;;0.50;0.50;;;;;;;21.19;84.20;99269.04;104604;1278;61562;-71
2022/09/01 10:35:36;;;;;;;0.40;0.20;;;;;;;21.26;83.71;99265.75;104642;1278;61297;-71
2022/09/01 10:38:07;;;;;;;2.30;0.60;;;;;;;21.36;78.70;99257.66;104671;1278;75485;-71
2022/09/01 10:40:45;;;;;;;1.30;0.50;;;;;;;21.55;78.00;99255.09;104665;1278;69273;-72
2022/09/01 10:43:46;;;;;;;1.40;0.50;;;;;;;21.80;70.47;99258.30;104592;1278;74685;-71
2022/09/01 10:46:18;;;;;;;1.30;0.60;;;;;;;22.00;66.13;99258.81;104458;1279;61311;-72
2022/09/01 10:48:51;;;;;;;2.20;0.60;;;;;;;22.16;65.85;99256.66;104526;1279;61983;-72
2022/09/01 10:51:17;;;;;;;4.30;0.60;;;;;;;22.35;65.48;99261.10;104447;1278;75627;-72
2022/09/01 10:53:45;;;;;;;0.90;0.50;;;;;;;22.43;63.06;99262.08;104604;1271;68808;-72
2022/09/01 10:56:26;;;;;;;1.00;0.50;;;;;;;22.25;61.21;99264.37;105090;1270;74454;-72
2022/09/01 10:59:11;;;;;;;1.40;0.50;;;;;;;21.94;58.53;99262.00;105141;1270;61397;-71
2022/09/01 11:01:39;;;;;;;0.50;0.40;;;;;;;22.00;58.98;99256.30;105040;1270;62344;-72
2022/09/01 11:04:12;;;;;;;0.70;0.50;;;;;;;22.24;58.86;99257.30;105057;1270;75394;-71
2022/09/01 11:06:41;;;;;;;2.40;0.70;;;;;;;22.36;58.32;99258.23;104977;1270;70246;-73
2022/09/01 11:09:21;;;;;;;0.80;0.40;;;;;;;22.29;57.58;99258.19;105075;1270;73473;-73
2022/09/01 11:12:17;;;;;;;;;;;;;;;21.96;55.84;99260.51;104960;1270;61456;-72
2022/09/01 11:15:23;;;;;;;1.70;0.50;;;;;;;21.63;55.88;99265.94;104594;1276;61144;-72
2022/09/01 11:17:51;;;;;;;0.90;0.70;;;;;;;21.45;55.93;99267.02;103885;1284;77169;-72
2022/09/01 11:20:30;;;;;;;1.00;0.60;;;;;;;21.30;55.41;99265.73;103918;1284;68539;-72
2022/09/01 11:23:21;;;;;;;1.10;0.60;;;;;;;21.14;55.10;99263.30;103989;1284;73513;-72
2022/09/01 11:25:51;;;;;;;0.60;0.40;;;;;;;20.99;56.18;99261.00;103814;1286;61295;-71
2022/09/01 11:28:30;;;;;;;1.50;0.40;;;;;;;20.89;56.46;99262.27;103948;1284;62186;-71
2022/09/01 11:31:07;;;;;;;1.30;0.50;;;;;;;20.88;56.94;99258.57;103926;1284;76474;-71
2022/09/01 11:33:52;;;;;;;0.80;0.50;;;;;;;20.97;56.40;99251.31;103948;1284;69388;-71
2022/09/01 11:36:43;;;;;;;1.50;0.80;;;;;;;21.15;56.29;99256.10;103913;1284;73870;-71
2022/09/01 11:39:28;;;;;;;3.40;0.60;;;;;;;21.52;55.94;99246.19;103895;1284;61470;-73
2022/09/01 11:42:00;;;;;;;0.90;0.60;;;;;;;21.79;54.78;99251.55;103938;1284;62008;-71